Boa Tyr — LAMU — position and weather

sailwx.info

Track history (hours):
 
Tides and Currents Weather Stations Pressure Air Temp Water Temp Dewpoint Dewpoint Depression Visibility Wind Speed Wind Dir Waves Ship Positions

Boa Tyr

Last reported at 2016-May-02 01:17 UTC. Time now 2016-May-04 11:45 UTC.
Position N 66°01' E 012°38'.

Length 31 m; draft 5 m.

Type: Tug. MMSI: 258395000.

Date/timePositionNaut miles runAvg speedWind from/ knotsBaromVisibWave heightAir tempDewpointWater temp
2016-May-02 01:17N 66°01' E 012°38'0 0.0
2016-May-02 00:20N 66°01' E 012°38'14 1.1
2016-May-01 11:11N 66°14' E 012°53'5 8.2
2016-May-01 10:33N 66°19' E 012°56'8 8.0
2016-May-01 09:33N 66°27' E 012°59'9 7.2
2016-May-01 08:19N 66°36' E 013°03'10 0.2
2016-Apr-29 12:20N 66°44' E 013°13'17 9.5
2016-Apr-29 10:33N 66°28' E 012°59'1010.1
2016-Apr-29 09:33N 66°18' E 012°57'12 9.8
2016-Apr-29 08:19N 66°07' E 012°46'  
Track history (hours):
 
Tides and Currents Weather Stations Pressure Air Temp Water Temp Dewpoint Dewpoint Depression Visibility Wind Speed Wind Dir Waves Ship Positions

Boa Tyr

Last reported at 2016-May-02 01:17 UTC. Time now 2016-May-04 11:45 UTC.
Position N 66°01' E 012°38'.

Length 31 m; draft 5 m.

Type: Tug. MMSI: 258395000.

Date/timePositionNaut miles runAvg speedWind from/ knotsBaromVisibWave heightAir tempDewpointWater temp
2016-May-02 01:17N 66°01' E 012°38'0 0.0
2016-May-02 00:20N 66°01' E 012°38'14 1.1
2016-May-01 11:11N 66°14' E 012°53'5 8.2
2016-May-01 10:33N 66°19' E 012°56'8 8.0
2016-May-01 09:33N 66°27' E 012°59'9 7.2
2016-May-01 08:19N 66°36' E 013°03'10 0.2
2016-Apr-29 12:20N 66°44' E 013°13'17 9.5
2016-Apr-29 10:33N 66°28' E 012°59'1010.1
2016-Apr-29 09:33N 66°18' E 012°57'12 9.8
2016-Apr-29 08:19N 66°07' E 012°46'  

Dump ship's entire track history